createdAt,value
2018-01-26T00:00:07.836Z,0
2018-01-26T00:01:10.329Z,0
2018-01-26T00:02:12.834Z,0
2018-01-26T00:03:15.319Z,0
2018-01-26T00:04:17.826Z,0
2018-01-26T00:05:20.605Z,0
2018-01-26T00:06:23.102Z,0
2018-01-26T00:07:25.601Z,0
2018-01-26T00:08:28.091Z,0
2018-01-26T00:09:30.869Z,0
2018-01-26T00:10:33.668Z,0
2018-01-26T00:11:36.158Z,0
2018-01-26T00:12:38.651Z,0
2018-01-26T00:13:41.151Z,0
2018-01-26T00:14:43.647Z,0
2018-01-26T00:15:46.144Z,0
2018-01-26T00:16:48.933Z,0
2018-01-26T00:17:51.419Z,0
2018-01-26T00:18:53.923Z,0
2018-01-26T00:19:56.408Z,0
2018-01-26T00:20:58.905Z,0
2018-01-26T00:22:01.681Z,0
2018-01-26T00:23:04.175Z,0
2018-01-26T00:24:06.674Z,0
2018-01-26T00:25:09.159Z,0
2018-01-26T00:26:11.668Z,0
2018-01-26T00:27:14.748Z,0
2018-01-26T00:28:17.244Z,0
2018-01-26T00:29:19.728Z,0
2018-01-26T00:30:22.224Z,0
2018-01-26T00:31:24.728Z,0
2018-01-26T00:32:27.217Z,0
2018-01-26T00:33:29.714Z,0
2018-01-26T00:34:32.208Z,0
2018-01-26T00:35:34.702Z,0
2018-01-26T00:36:37.216Z,0
2018-01-26T00:37:39.710Z,0
2018-01-26T00:38:42.778Z,0
2018-01-26T00:39:45.274Z,0
2018-01-26T00:40:47.766Z,0
2018-01-26T00:41:50.266Z,0
2018-01-26T00:42:52.769Z,0
2018-01-26T00:43:55.245Z,0
2018-01-26T00:44:58.042Z,0
2018-01-26T00:46:01.121Z,0
2018-01-26T00:47:03.623Z,0
2018-01-26T00:48:06.119Z,0
2018-01-26T00:49:08.900Z,0
2018-01-26T00:50:11.676Z,0
2018-01-26T00:51:14.178Z,0
2018-01-26T00:52:16.956Z,0
2018-01-26T00:53:19.439Z,0
2018-01-26T00:54:21.933Z,0
2018-01-26T00:55:24.442Z,0
2018-01-26T00:56:26.937Z,0
2018-01-26T00:57:29.427Z,0
2018-01-26T00:58:31.916Z,0
2018-01-26T00:59:34.411Z,0
2018-01-26T01:00:36.907Z,0
2018-01-26T01:01:39.411Z,0
2018-01-26T01:02:41.884Z,0
2018-01-26T01:03:44.383Z,0
2018-01-26T01:04:46.884Z,0
2018-01-26T01:05:49.391Z,0
2018-01-26T01:06:51.882Z,0
2018-01-26T01:07:54.378Z,0
2018-01-26T01:08:56.863Z,0
2018-01-26T01:09:59.370Z,0
2018-01-26T01:11:01.861Z,0
2018-01-26T01:12:04.355Z,0
2018-01-26T01:13:06.847Z,0
2018-01-26T01:14:09.343Z,0
2018-01-26T01:15:11.855Z,0
2018-01-26T01:16:14.345Z,0
2018-01-26T01:17:16.830Z,0
2018-01-26T01:18:19.327Z,0
2018-01-26T01:19:22.132Z,0
2018-01-26T01:20:24.630Z,0
2018-01-26T01:21:27.120Z,0
2018-01-26T01:22:29.620Z,0
2018-01-26T01:23:32.112Z,0
2018-01-26T01:24:34.891Z,0
2018-01-26T01:25:37.392Z,0
2018-01-26T01:26:39.905Z,0
2018-01-26T01:27:42.394Z,0
2018-01-26T01:28:44.889Z,0
2018-01-26T01:29:47.678Z,0
2018-01-26T01:30:50.176Z,0
2018-01-26T01:31:52.959Z,0
2018-01-26T01:32:55.458Z,0
2018-01-26T01:33:57.943Z,0
2018-01-26T01:35:00.736Z,0
2018-01-26T01:36:03.236Z,0
2018-01-26T01:37:06.047Z,0
2018-01-26T01:38:08.536Z,0
2018-01-26T01:39:11.033Z,0
2018-01-26T01:40:13.520Z,0
2018-01-26T01:41:16.033Z,0
2018-01-26T01:42:18.823Z,0
2018-01-26T01:43:21.317Z,0
2018-01-26T01:44:23.828Z,0
2018-01-26T01:45:26.321Z,0
2018-01-26T01:46:28.815Z,0
2018-01-26T01:47:31.317Z,0
2018-01-26T01:48:33.803Z,0
2018-01-26T01:49:36.306Z,0
2018-01-26T01:50:39.086Z,0
2018-01-26T01:51:41.582Z,0
2018-01-26T01:52:44.367Z,0
2018-01-26T01:53:46.859Z,0
2018-01-26T01:54:49.359Z,0
2018-01-26T01:55:51.854Z,0
2018-01-26T01:56:54.352Z,0
2018-01-26T01:57:56.848Z,0
2018-01-26T01:58:59.339Z,0
2018-01-26T02:00:01.854Z,0
2018-01-26T02:01:04.629Z,0
2018-01-26T02:02:07.128Z,0
2018-01-26T02:03:09.625Z,0
2018-01-26T02:04:12.112Z,0
2018-01-26T02:05:14.606Z,0
2018-01-26T02:06:17.105Z,0
2018-01-26T02:07:19.590Z,0
2018-01-26T02:08:22.090Z,0
2018-01-26T02:09:24.593Z,0
2018-01-26T02:10:27.084Z,0
2018-01-26T02:11:29.894Z,0
2018-01-26T02:12:32.387Z,0
2018-01-26T02:13:34.882Z,0
2018-01-26T02:14:37.673Z,0
2018-01-26T02:15:40.444Z,0
2018-01-26T02:16:43.252Z,0
2018-01-26T02:17:45.746Z,0
2018-01-26T02:18:48.242Z,0
2018-01-26T02:19:50.734Z,0
2018-01-26T02:20:53.236Z,0
2018-01-26T02:21:56.016Z,0
2018-01-26T02:22:58.521Z,0
2018-01-26T02:24:01.022Z,0
2018-01-26T02:25:03.512Z,0
2018-01-26T02:26:06.006Z,0
2018-01-26T02:27:08.496Z,0
2018-01-26T02:28:11.000Z,0
2018-01-26T02:29:13.498Z,0
2018-01-26T02:30:15.992Z,0
2018-01-26T02:31:18.491Z,0
2018-01-26T02:32:20.995Z,0
2018-01-26T02:33:23.786Z,0
2018-01-26T02:34:26.288Z,0
2018-01-26T02:35:28.774Z,0
2018-01-26T02:36:31.560Z,0
2018-01-26T02:37:34.063Z,0
2018-01-26T02:38:36.854Z,0
2018-01-26T02:39:39.348Z,0
2018-01-26T02:40:41.840Z,0
2018-01-26T02:41:44.328Z,0
2018-01-26T02:42:46.835Z,0
2018-01-26T02:43:49.329Z,0
2018-01-26T02:44:51.818Z,0
2018-01-26T02:45:54.319Z,0
2018-01-26T02:46:56.822Z,0
2018-01-26T02:47:59.317Z,0
2018-01-26T02:49:01.820Z,0
2018-01-26T02:50:04.596Z,0
2018-01-26T02:51:07.380Z,0
2018-01-26T02:52:09.873Z,0
2018-01-26T02:53:12.370Z,0
2018-01-26T02:54:14.868Z,0
2018-01-26T02:55:18.280Z,0
2018-01-26T02:56:20.779Z,0
2018-01-26T02:57:23.275Z,0
2018-01-26T02:58:25.761Z,0
2018-01-26T02:59:28.568Z,0
2018-01-26T03:00:31.058Z,0
2018-01-26T03:01:33.561Z,0
2018-01-26T03:02:36.052Z,0
2018-01-26T03:03:38.551Z,0
2018-01-26T03:04:41.037Z,0
2018-01-26T03:05:43.548Z,0
2018-01-26T03:06:46.032Z,0
2018-01-26T03:07:48.526Z,0
2018-01-26T03:08:51.015Z,0
2018-01-26T03:09:53.512Z,0
2018-01-26T03:10:56.015Z,0
2018-01-26T03:11:58.792Z,0
2018-01-26T03:13:01.289Z,0
2018-01-26T03:14:04.152Z,0
2018-01-26T03:15:06.636Z,0
2018-01-26T03:16:09.427Z,0
2018-01-26T03:17:12.206Z,0
2018-01-26T03:18:14.705Z,0
2018-01-26T03:19:17.192Z,0
2018-01-26T03:20:19.697Z,0
2018-01-26T03:21:22.174Z,0
2018-01-26T03:22:24.674Z,0
2018-01-26T03:23:27.189Z,0
2018-01-26T03:24:29.680Z,0
2018-01-26T03:25:32.164Z,0
2018-01-26T03:26:34.665Z,0
2018-01-26T03:27:37.163Z,0
2018-01-26T03:28:39.973Z,0
2018-01-26T03:29:42.470Z,0
2018-01-26T03:30:45.270Z,0
2018-01-26T03:31:47.765Z,0
2018-01-26T03:32:50.272Z,0
2018-01-26T03:33:52.765Z,0
2018-01-26T03:34:55.256Z,0
2018-01-26T03:35:58.068Z,0
2018-01-26T03:37:00.549Z,0
2018-01-26T03:38:03.058Z,0
2018-01-26T03:39:05.553Z,0
2018-01-26T03:40:08.325Z,0
2018-01-26T03:41:10.817Z,0
2018-01-26T03:42:13.312Z,0
2018-01-26T03:43:15.808Z,0
2018-01-26T03:44:18.308Z,0
2018-01-26T03:45:20.793Z,0
2018-01-26T03:46:23.288Z,0
2018-01-26T03:47:25.808Z,0
2018-01-26T03:48:28.294Z,0
2018-01-26T03:49:30.790Z,0
2018-01-26T03:50:33.865Z,0
2018-01-26T03:51:36.353Z,0
2018-01-26T03:52:39.141Z,0
2018-01-26T03:53:41.632Z,0
2018-01-26T03:54:44.141Z,0
2018-01-26T03:55:46.633Z,0
2018-01-26T03:56:49.127Z,0
2018-01-26T03:57:51.621Z,0
2018-01-26T03:58:54.393Z,0
2018-01-26T03:59:57.175Z,0
2018-01-26T04:00:59.676Z,0
2018-01-26T04:02:02.492Z,0
2018-01-26T04:03:04.996Z,0
2018-01-26T04:04:07.488Z,0
2018-01-26T04:05:09.989Z,0
2018-01-26T04:06:12.487Z,0
2018-01-26T04:07:14.990Z,0
2018-01-26T04:08:17.479Z,0
2018-01-26T04:09:19.981Z,0
2018-01-26T04:10:22.478Z,0
2018-01-26T04:11:24.974Z,0
2018-01-26T04:12:27.461Z,0
2018-01-26T04:13:29.963Z,0
2018-01-26T04:14:32.443Z,0
2018-01-26T04:15:34.961Z,0
2018-01-26T04:16:37.447Z,0
2018-01-26T04:17:39.944Z,0
2018-01-26T04:18:42.434Z,0
2018-01-26T04:19:45.223Z,0
2018-01-26T04:20:47.709Z,0
2018-01-26T04:21:50.211Z,0
2018-01-26T04:22:52.711Z,0
2018-01-26T04:23:55.206Z,0
2018-01-26T04:24:57.704Z,0
2018-01-26T04:26:00.488Z,0
2018-01-26T04:27:02.987Z,0
2018-01-26T04:28:05.477Z,0
2018-01-26T04:29:07.980Z,0
2018-01-26T04:30:10.464Z,0
2018-01-26T04:31:12.963Z,0
2018-01-26T04:32:15.754Z,0
2018-01-26T04:33:18.822Z,0
2018-01-26T04:34:21.313Z,0
2018-01-26T04:35:23.817Z,0
2018-01-26T04:36:26.311Z,0
2018-01-26T04:37:28.819Z,0
2018-01-26T04:38:31.319Z,0
2018-01-26T04:39:33.804Z,0
2018-01-26T04:40:36.301Z,0
2018-01-26T04:41:38.811Z,0
2018-01-26T04:42:41.299Z,0
2018-01-26T04:43:43.798Z,0
2018-01-26T04:44:46.296Z,0
2018-01-26T04:45:48.804Z,0
2018-01-26T04:46:51.316Z,0
2018-01-26T04:47:53.810Z,0
2018-01-26T04:48:56.291Z,0
2018-01-26T04:49:59.076Z,0
2018-01-26T04:51:01.570Z,0
2018-01-26T04:52:04.074Z,0
2018-01-26T04:53:06.568Z,0
2018-01-26T04:54:09.065Z,0
2018-01-26T04:55:11.553Z,0
2018-01-26T04:56:14.040Z,0
2018-01-26T04:57:16.537Z,0
2018-01-26T04:58:19.323Z,0
2018-01-26T04:59:21.826Z,0
2018-01-26T05:00:24.325Z,0
2018-01-26T05:01:26.818Z,0
2018-01-26T05:02:29.311Z,0
2018-01-26T05:03:32.105Z,0
2018-01-26T05:04:34.599Z,0
2018-01-26T05:05:37.095Z,0
2018-01-26T05:06:39.596Z,0
2018-01-26T05:07:42.091Z,0
2018-01-26T05:08:44.591Z,0
2018-01-26T05:09:47.095Z,0
2018-01-26T05:10:49.581Z,0
2018-01-26T05:11:52.081Z,0
2018-01-26T05:12:54.588Z,0
2018-01-26T05:13:57.075Z,0
2018-01-26T05:14:59.566Z,0
2018-01-26T05:16:02.066Z,0
2018-01-26T05:17:04.560Z,0
2018-01-26T05:18:07.054Z,0
2018-01-26T05:19:09.554Z,0
2018-01-26T05:20:12.034Z,0
2018-01-26T05:21:14.825Z,0
2018-01-26T05:22:17.321Z,0
2018-01-26T05:23:19.819Z,0
2018-01-26T05:24:22.312Z,0
2018-01-26T05:25:24.817Z,0
2018-01-26T05:26:27.317Z,0
2018-01-26T05:27:29.792Z,0
2018-01-26T05:28:32.596Z,0
2018-01-26T05:29:35.085Z,0
2018-01-26T05:30:37.582Z,0
2018-01-26T05:31:40.082Z,0
2018-01-26T05:32:42.575Z,0
2018-01-26T05:33:45.067Z,0
2018-01-26T05:34:47.579Z,0
2018-01-26T05:35:50.073Z,0
2018-01-26T05:36:52.580Z,0
2018-01-26T05:37:55.070Z,0
2018-01-26T05:38:57.564Z,0
2018-01-26T05:40:00.065Z,0
2018-01-26T05:41:02.564Z,0
2018-01-26T05:42:05.059Z,0
2018-01-26T05:43:07.557Z,0
2018-01-26T05:44:10.037Z,0
2018-01-26T05:45:12.538Z,0
2018-01-26T05:46:15.036Z,0
2018-01-26T05:47:17.538Z,0
2018-01-26T05:48:20.039Z,0
2018-01-26T05:49:22.520Z,0
2018-01-26T05:50:25.017Z,0
2018-01-26T05:51:27.528Z,0
2018-01-26T05:52:30.023Z,0
2018-01-26T05:53:33.078Z,0
2018-01-26T05:54:35.583Z,0
2018-01-26T05:55:38.086Z,0
2018-01-26T05:56:40.587Z,0
2018-01-26T05:57:43.369Z,0
2018-01-26T05:58:45.856Z,0
2018-01-26T05:59:48.348Z,0
2018-01-26T06:00:50.866Z,0
2018-01-26T06:01:53.348Z,0
2018-01-26T06:02:55.838Z,0
2018-01-26T06:03:58.335Z,0
2018-01-26T06:05:00.832Z,0
2018-01-26T06:06:03.328Z,0
2018-01-26T06:07:05.830Z,0
2018-01-26T06:08:08.325Z,0
2018-01-26T06:09:10.815Z,0
2018-01-26T06:10:13.332Z,0
2018-01-26T06:11:15.813Z,0
2018-01-26T06:12:18.316Z,0
2018-01-26T06:13:20.811Z,0
2018-01-26T06:14:23.303Z,0
2018-01-26T06:15:25.799Z,0
2018-01-26T06:16:28.298Z,0
2018-01-26T06:17:30.807Z,0
2018-01-26T06:18:33.282Z,0
2018-01-26T06:19:35.772Z,0
2018-01-26T06:20:38.271Z,0
2018-01-26T06:21:40.769Z,0
2018-01-26T06:22:43.267Z,0
2018-01-26T06:23:45.761Z,0
2018-01-26T06:24:48.259Z,0
2018-01-26T06:25:50.747Z,0
2018-01-26T06:26:53.256Z,0
2018-01-26T06:27:55.744Z,0
2018-01-26T06:28:58.237Z,0
2018-01-26T06:30:00.737Z,0
2018-01-26T06:31:03.232Z,0
2018-01-26T06:32:06.011Z,0
2018-01-26T06:33:08.516Z,0
2018-01-26T06:34:10.992Z,0
2018-01-26T06:35:13.507Z,0
2018-01-26T06:36:15.985Z,0
2018-01-26T06:37:18.485Z,0
2018-01-26T06:38:20.988Z,0
2018-01-26T06:39:23.489Z,0
2018-01-26T06:40:25.983Z,0
2018-01-26T06:41:28.469Z,0
2018-01-26T06:42:30.957Z,0
2018-01-26T06:43:33.464Z,0
2018-01-26T06:44:35.968Z,0
2018-01-26T06:45:38.447Z,0
2018-01-26T06:46:40.945Z,0
2018-01-26T06:47:43.449Z,0
2018-01-26T06:48:45.948Z,0
2018-01-26T06:49:48.437Z,0
2018-01-26T06:50:50.949Z,0
2018-01-26T06:51:53.452Z,0
2018-01-26T06:52:55.943Z,0
2018-01-26T06:53:58.439Z,0
2018-01-26T06:55:00.941Z,0
2018-01-26T06:56:03.434Z,0
2018-01-26T06:57:05.946Z,0
2018-01-26T06:58:08.422Z,0
2018-01-26T06:59:10.919Z,0
2018-01-26T07:00:13.423Z,0
2018-01-26T07:01:15.915Z,0
2018-01-26T07:02:18.409Z,0
2018-01-26T07:03:20.901Z,0
2018-01-26T07:04:23.398Z,0
2018-01-26T07:05:25.889Z,1
2018-01-26T07:06:28.389Z,1
2018-01-26T07:07:30.883Z,1
2018-01-26T07:08:33.372Z,1
2018-01-26T07:09:35.891Z,1
2018-01-26T07:10:38.382Z,1
2018-01-26T07:11:40.876Z,1
2018-01-26T07:12:43.365Z,1
2018-01-26T07:13:45.866Z,1
2018-01-26T07:14:48.359Z,1
2018-01-26T07:15:50.862Z,2
2018-01-26T07:16:53.349Z,2
2018-01-26T07:17:55.847Z,2
2018-01-26T07:18:58.358Z,2
2018-01-26T07:20:01.153Z,2
2018-01-26T07:21:03.650Z,2
2018-01-26T07:22:06.155Z,3
2018-01-26T07:23:08.647Z,3
2018-01-26T07:24:11.132Z,3
2018-01-26T07:25:13.655Z,3
2018-01-26T07:26:16.133Z,4
2018-01-26T07:27:18.630Z,4
2018-01-26T07:28:21.120Z,4
2018-01-26T07:29:23.621Z,5
2018-01-26T07:30:26.114Z,5
2018-01-26T07:31:28.978Z,6
2018-01-26T07:32:31.439Z,6
2018-01-26T07:33:33.921Z,6
2018-01-26T07:34:36.422Z,6
2018-01-26T07:35:38.925Z,7
2018-01-26T07:36:41.466Z,7
2018-01-26T07:37:43.915Z,8
2018-01-26T07:38:46.413Z,8
2018-01-26T07:39:48.921Z,8
2018-01-26T07:40:51.726Z,8
2018-01-26T07:41:54.508Z,9
2018-01-26T07:42:56.998Z,9
2018-01-26T07:43:59.503Z,9
2018-01-26T07:45:02.291Z,9
2018-01-26T07:46:04.792Z,9
2018-01-26T07:47:07.289Z,9
2018-01-26T07:48:09.781Z,8
2018-01-26T07:49:12.557Z,8
2018-01-26T07:50:15.066Z,8
2018-01-26T07:51:17.846Z,8
2018-01-26T07:52:20.347Z,8
2018-01-26T07:53:22.839Z,8
2018-01-26T07:54:25.333Z,8
2018-01-26T07:55:27.839Z,8
2018-01-26T07:56:30.625Z,8
2018-01-26T07:57:33.117Z,8
2018-01-26T07:58:35.900Z,9
2018-01-26T07:59:38.401Z,9
2018-01-26T08:00:40.901Z,9
2018-01-26T08:01:43.397Z,9
2018-01-26T08:02:45.883Z,10
2018-01-26T08:03:48.373Z,10
2018-01-26T08:04:50.871Z,10
2018-01-26T08:05:53.374Z,11
2018-01-26T08:06:55.859Z,11
2018-01-26T08:07:58.357Z,11
2018-01-26T08:09:01.155Z,11
2018-01-26T08:10:03.655Z,11
2018-01-26T08:11:06.438Z,11
2018-01-26T08:12:08.940Z,11
2018-01-26T08:13:11.434Z,11
2018-01-26T08:14:13.936Z,10
2018-01-26T08:15:16.439Z,10
2018-01-26T08:16:18.927Z,10
2018-01-26T08:17:21.432Z,11
2018-01-26T08:18:23.928Z,11
2018-01-26T08:19:26.714Z,11
2018-01-26T08:20:29.206Z,12
2018-01-26T08:21:31.722Z,13
2018-01-26T08:22:34.256Z,14
2018-01-26T08:23:36.699Z,14
2018-01-26T08:24:39.203Z,13
2018-01-26T08:25:41.700Z,12
2018-01-26T08:26:44.198Z,11
2018-01-26T08:27:46.985Z,11
2018-01-26T08:28:49.470Z,10
2018-01-26T08:29:51.974Z,10
2018-01-26T08:30:54.468Z,10
2018-01-26T08:31:56.962Z,10
2018-01-26T08:32:59.453Z,11
2018-01-26T08:34:02.250Z,11
2018-01-26T08:35:04.738Z,11
2018-01-26T08:36:07.242Z,11
2018-01-26T08:37:09.741Z,12
2018-01-26T08:38:12.235Z,12
2018-01-26T08:39:14.725Z,12
2018-01-26T08:40:17.233Z,13
2018-01-26T08:41:19.717Z,14
2018-01-26T08:42:22.541Z,14
2018-01-26T08:43:25.032Z,14
2018-01-26T08:44:27.525Z,13
2018-01-26T08:45:30.015Z,13
2018-01-26T08:46:32.509Z,12
2018-01-26T08:47:34.994Z,11
2018-01-26T08:48:37.493Z,12
2018-01-26T08:49:39.992Z,12
2018-01-26T08:50:42.483Z,11
2018-01-26T08:51:44.985Z,11
2018-01-26T08:52:47.479Z,12
2018-01-26T08:53:49.976Z,12
2018-01-26T08:54:52.458Z,12
2018-01-26T08:55:54.970Z,13
2018-01-26T08:56:57.456Z,13
2018-01-26T08:57:59.964Z,13
2018-01-26T08:59:02.752Z,13
2018-01-26T09:00:05.247Z,13
2018-01-26T09:01:07.737Z,13
2018-01-26T09:02:10.558Z,13
2018-01-26T09:03:13.048Z,12
2018-01-26T09:04:15.542Z,12
2018-01-26T09:05:18.030Z,12
2018-01-26T09:06:20.528Z,12
2018-01-26T09:07:23.018Z,11
2018-01-26T09:08:25.523Z,12
2018-01-26T09:09:28.012Z,13
2018-01-26T09:10:30.803Z,14
2018-01-26T09:11:33.302Z,15
2018-01-26T09:12:35.808Z,16
2018-01-26T09:13:38.620Z,15
2018-01-26T09:14:41.121Z,15
2018-01-26T09:15:43.602Z,14
2018-01-26T09:16:46.106Z,14
2018-01-26T09:17:48.600Z,14
2018-01-26T09:18:51.103Z,13
2018-01-26T09:19:53.587Z,14
2018-01-26T09:20:56.108Z,15
2018-01-26T09:21:58.611Z,17
2018-01-26T09:23:01.100Z,19
2018-01-26T09:24:03.601Z,20
2018-01-26T09:25:06.092Z,20
2018-01-26T09:26:08.594Z,20
2018-01-26T09:27:11.096Z,21
2018-01-26T09:28:13.585Z,21
2018-01-26T09:29:16.360Z,21
2018-01-26T09:30:18.871Z,22
2018-01-26T09:31:21.367Z,21
2018-01-26T09:32:23.859Z,21
2018-01-26T09:33:26.371Z,22
2018-01-26T09:34:28.851Z,22
2018-01-26T09:35:31.346Z,22
2018-01-26T09:36:33.847Z,22
2018-01-26T09:37:36.333Z,22
2018-01-26T09:38:39.132Z,21
2018-01-26T09:39:41.930Z,21
2018-01-26T09:40:44.420Z,21
2018-01-26T09:41:46.917Z,20
2018-01-26T09:42:49.418Z,20
2018-01-26T09:43:51.902Z,21
2018-01-26T09:44:54.401Z,21
2018-01-26T09:45:57.190Z,22
2018-01-26T09:46:59.667Z,23
2018-01-26T09:48:02.467Z,23
2018-01-26T09:49:04.985Z,25
2018-01-26T09:50:07.455Z,24
2018-01-26T09:51:09.958Z,24
2018-01-26T09:52:12.450Z,25
2018-01-26T09:53:14.942Z,24
2018-01-26T09:54:17.740Z,25
2018-01-26T09:55:20.510Z,24
2018-01-26T09:56:23.013Z,23
2018-01-26T09:57:25.505Z,25
2018-01-26T09:58:28.003Z,28
2018-01-26T09:59:30.494Z,28
2018-01-26T10:00:33.001Z,28
2018-01-26T10:01:35.480Z,31
2018-01-26T10:02:37.996Z,31
2018-01-26T10:03:40.477Z,32
2018-01-26T10:04:42.978Z,31
2018-01-26T10:05:45.487Z,33
2018-01-26T10:06:47.975Z,32
2018-01-26T10:07:50.476Z,32
2018-01-26T10:08:53.869Z,30
2018-01-26T10:09:56.368Z,29
2018-01-26T10:10:58.873Z,28
2018-01-26T10:12:01.371Z,28
2018-01-26T10:13:03.856Z,27
2018-01-26T10:14:06.428Z,27
2018-01-26T10:15:08.928Z,25
2018-01-26T10:16:11.425Z,23
2018-01-26T10:17:13.902Z,21
2018-01-26T10:18:16.699Z,20
2018-01-26T10:19:19.775Z,20
2018-01-26T10:20:22.263Z,19
2018-01-26T10:21:25.045Z,18
2018-01-26T10:22:27.827Z,19
2018-01-26T10:23:30.321Z,20
2018-01-26T10:24:32.821Z,21
2018-01-26T10:25:35.308Z,22
2018-01-26T10:26:37.801Z,22
2018-01-26T10:27:40.610Z,22
2018-01-26T10:28:43.099Z,20
2018-01-26T10:29:46.063Z,19
2018-01-26T10:30:48.637Z,19
2018-01-26T10:31:51.143Z,19
2018-01-26T10:32:54.060Z,20
2018-01-26T10:33:57.069Z,21
2018-01-26T10:34:59.739Z,22
2018-01-26T10:36:02.373Z,24
2018-01-26T10:37:04.985Z,26
2018-01-26T10:38:07.578Z,29
2018-01-26T10:39:10.063Z,34
2018-01-26T10:40:12.564Z,34
2018-01-26T10:41:15.349Z,36
2018-01-26T10:42:18.135Z,35
2018-01-26T10:43:20.637Z,34
2018-01-26T10:44:23.125Z,32
2018-01-26T10:45:25.929Z,30
2018-01-26T10:46:28.706Z,27
2018-01-26T10:47:31.207Z,26
2018-01-26T10:48:33.702Z,25
2018-01-26T10:49:36.202Z,27
2018-01-26T10:50:38.705Z,31
2018-01-26T10:51:41.197Z,38
2018-01-26T10:52:43.694Z,46
2018-01-26T10:53:46.495Z,53
2018-01-26T10:54:48.986Z,54
2018-01-26T10:55:51.772Z,52
2018-01-26T10:56:54.272Z,48
2018-01-26T10:57:57.060Z,45
2018-01-26T10:58:59.566Z,43
2018-01-26T11:00:02.362Z,45
2018-01-26T11:01:04.857Z,49
2018-01-26T11:02:07.367Z,53
2018-01-26T11:03:09.862Z,54
2018-01-26T11:04:12.365Z,51
2018-01-26T11:05:14.868Z,51
2018-01-26T11:06:17.368Z,60
2018-01-26T11:07:20.157Z,70
2018-01-26T11:08:22.654Z,69
2018-01-26T11:09:25.152Z,65
2018-01-26T11:10:27.936Z,58
2018-01-26T11:11:30.435Z,55
2018-01-26T11:12:32.920Z,52
2018-01-26T11:13:36.010Z,50
2018-01-26T11:14:38.510Z,48
2018-01-26T11:15:41.615Z,47
2018-01-26T11:16:44.109Z,47
2018-01-26T11:17:46.614Z,47
2018-01-26T11:18:49.100Z,47
2018-01-26T11:19:51.607Z,49
2018-01-26T11:20:54.103Z,53
2018-01-26T11:21:56.607Z,57
2018-01-26T11:22:59.101Z,58
2018-01-26T11:24:01.613Z,59
2018-01-26T11:25:04.103Z,58
2018-01-26T11:26:06.618Z,60
2018-01-26T11:27:09.411Z,62
2018-01-26T11:28:11.908Z,66
2018-01-26T11:29:14.407Z,71
2018-01-26T11:30:17.198Z,72
2018-01-26T11:31:19.695Z,72
2018-01-26T11:32:22.536Z,69
2018-01-26T11:33:25.001Z,62
2018-01-26T11:34:27.500Z,57
2018-01-26T11:35:29.993Z,55
2018-01-26T11:36:32.514Z,50
2018-01-26T11:37:35.300Z,48
2018-01-26T11:38:38.087Z,47
2018-01-26T11:39:40.584Z,48
2018-01-26T11:40:43.087Z,48
2018-01-26T11:41:45.582Z,48
2018-01-26T11:42:48.092Z,45
2018-01-26T11:43:50.581Z,46
2018-01-26T11:44:53.079Z,43
2018-01-26T11:45:55.595Z,38
2018-01-26T11:46:58.091Z,39
2018-01-26T11:48:00.590Z,42
2018-01-26T11:49:03.096Z,44
2018-01-26T11:50:05.884Z,45
2018-01-26T11:51:08.367Z,45
2018-01-26T11:52:10.865Z,47
2018-01-26T11:53:13.375Z,49
2018-01-26T11:54:15.873Z,44
2018-01-26T11:55:18.371Z,44
2018-01-26T11:56:20.879Z,46
2018-01-26T11:57:23.375Z,45
2018-01-26T11:58:26.163Z,42
2018-01-26T11:59:28.671Z,41
2018-01-26T12:00:31.147Z,42
2018-01-26T12:01:33.661Z,44
2018-01-26T12:02:36.162Z,47
2018-01-26T12:03:38.650Z,48
2018-01-26T12:04:41.153Z,49
2018-01-26T12:05:43.645Z,50
2018-01-26T12:06:46.142Z,46
2018-01-26T12:07:48.669Z,41
2018-01-26T12:08:51.160Z,39
2018-01-26T12:09:53.652Z,37
2018-01-26T12:10:56.469Z,36
2018-01-26T12:11:58.963Z,34
2018-01-26T12:13:01.467Z,35
2018-01-26T12:14:04.030Z,35
2018-01-26T12:15:06.555Z,34
2018-01-26T12:16:09.351Z,34
2018-01-26T12:17:11.864Z,32
2018-01-26T12:18:14.643Z,31
2018-01-26T12:19:17.144Z,29
2018-01-26T12:20:19.645Z,29
2018-01-26T12:21:22.147Z,29
2018-01-26T12:22:24.645Z,26
2018-01-26T12:23:27.149Z,25
2018-01-26T12:24:29.631Z,23
2018-01-26T12:25:32.139Z,22
2018-01-26T12:26:34.645Z,21
2018-01-26T12:27:37.151Z,21
2018-01-26T12:28:39.645Z,20
2018-01-26T12:29:42.143Z,20
2018-01-26T12:30:44.639Z,19
2018-01-26T12:31:47.157Z,19
2018-01-26T12:32:49.939Z,18
2018-01-26T12:33:52.436Z,18
2018-01-26T12:34:54.937Z,18
2018-01-26T12:35:57.436Z,18
2018-01-26T12:36:59.940Z,16
2018-01-26T12:38:02.447Z,15
2018-01-26T12:39:04.935Z,14
2018-01-26T12:40:07.444Z,13
2018-01-26T12:41:09.942Z,12
2018-01-26T12:42:12.451Z,12
2018-01-26T12:43:14.945Z,12
2018-01-26T12:44:17.448Z,12
2018-01-26T12:45:20.535Z,13
2018-01-26T12:46:23.031Z,13
2018-01-26T12:47:25.527Z,12
2018-01-26T12:48:28.027Z,11
2018-01-26T12:49:30.524Z,9
2018-01-26T12:50:33.027Z,9
2018-01-26T12:51:35.803Z,9
2018-01-26T12:52:38.609Z,8
2018-01-26T12:53:41.104Z,8
2018-01-26T12:54:43.597Z,8
2018-01-26T12:55:46.104Z,9
2018-01-26T12:56:48.596Z,8
2018-01-26T12:57:51.140Z,8
2018-01-26T12:58:53.602Z,8
2018-01-26T12:59:56.079Z,8
2018-01-26T13:00:58.586Z,9
2018-01-26T13:02:01.088Z,9
2018-01-26T13:03:03.584Z,8
2018-01-26T13:04:06.084Z,8
2018-01-26T13:05:08.582Z,7
2018-01-26T13:06:11.073Z,7
2018-01-26T13:07:13.577Z,7
2018-01-26T13:08:16.374Z,8
2018-01-26T13:09:19.160Z,8
2018-01-26T13:10:21.668Z,8
2018-01-26T13:11:24.163Z,8
2018-01-26T13:12:26.667Z,10
2018-01-26T13:13:29.167Z,15
2018-01-26T13:14:31.661Z,19
2018-01-26T13:15:34.165Z,21
2018-01-26T13:16:36.970Z,21
2018-01-26T13:17:39.467Z,23
2018-01-26T13:18:42.250Z,24
2018-01-26T13:19:45.040Z,24
2018-01-26T13:20:47.839Z,24
2018-01-26T13:21:50.340Z,22
2018-01-26T13:22:52.845Z,20
2018-01-26T13:23:55.326Z,19
2018-01-26T13:24:57.831Z,19
2018-01-26T13:26:00.348Z,19
2018-01-26T13:27:02.841Z,20
2018-01-26T13:28:05.331Z,20
2018-01-26T13:29:07.820Z,19
2018-01-26T13:30:10.607Z,19
2018-01-26T13:31:13.412Z,18
2018-01-26T13:32:16.187Z,18
2018-01-26T13:33:18.731Z,18
2018-01-26T13:34:21.233Z,19
2018-01-26T13:35:24.017Z,20
2018-01-26T13:36:26.515Z,20
2018-01-26T13:37:29.313Z,22
2018-01-26T13:38:31.802Z,24
2018-01-26T13:39:34.301Z,25
2018-01-26T13:40:36.815Z,26
2018-01-26T13:41:39.602Z,27
2018-01-26T13:42:42.098Z,29
2018-01-26T13:43:44.884Z,30
2018-01-26T13:44:47.385Z,30
2018-01-26T13:45:49.878Z,30
2018-01-26T13:46:52.379Z,29
2018-01-26T13:47:54.877Z,27
2018-01-26T13:48:57.661Z,27
2018-01-26T13:50:00.182Z,26
2018-01-26T13:51:02.672Z,27
2018-01-26T13:52:05.167Z,26
2018-01-26T13:53:07.966Z,26
2018-01-26T13:54:10.754Z,25
2018-01-26T13:55:13.552Z,24
2018-01-26T13:56:16.352Z,23
2018-01-26T13:57:18.841Z,22
2018-01-26T13:58:21.631Z,21
2018-01-26T13:59:24.177Z,20
2018-01-26T14:00:27.315Z,19
2018-01-26T14:01:29.816Z,19
2018-01-26T14:02:32.310Z,17
2018-01-26T14:03:34.800Z,15
2018-01-26T14:04:37.315Z,13
2018-01-26T14:05:39.814Z,11
2018-01-26T14:06:42.632Z,10
2018-01-26T14:07:45.124Z,10
2018-01-26T14:08:47.618Z,9
2018-01-26T14:09:50.111Z,9
2018-01-26T14:10:52.623Z,9
2018-01-26T14:11:55.103Z,10
2018-01-26T14:12:57.608Z,10
2018-01-26T14:14:00.119Z,9
2018-01-26T14:15:02.616Z,8
2018-01-26T14:16:05.119Z,8
2018-01-26T14:17:07.613Z,7
2018-01-26T14:18:10.105Z,7
2018-01-26T14:19:12.612Z,8
2018-01-26T14:20:15.106Z,8
2018-01-26T14:21:17.613Z,7
2018-01-26T14:22:20.106Z,7
2018-01-26T14:23:22.603Z,7
2018-01-26T14:24:25.403Z,7
2018-01-26T14:25:27.899Z,7
2018-01-26T14:26:30.404Z,6
2018-01-26T14:27:32.904Z,6
2018-01-26T14:28:35.690Z,5
2018-01-26T14:29:38.192Z,5
2018-01-26T14:30:40.698Z,5
2018-01-26T14:31:43.194Z,6
2018-01-26T14:32:45.699Z,6
2018-01-26T14:33:48.487Z,6
2018-01-26T14:34:50.981Z,6
2018-01-26T14:35:53.496Z,7
2018-01-26T14:36:55.989Z,7
2018-01-26T14:37:58.496Z,7
2018-01-26T14:39:00.996Z,7
2018-01-26T14:40:03.488Z,7
2018-01-26T14:41:06.274Z,8
2018-01-26T14:42:08.768Z,9
2018-01-26T14:43:11.555Z,10
2018-01-26T14:44:14.054Z,10
2018-01-26T14:45:16.554Z,10
2018-01-26T14:46:19.058Z,9
2018-01-26T14:47:21.543Z,8
2018-01-26T14:48:24.064Z,8
2018-01-26T14:49:26.565Z,7
2018-01-26T14:50:29.054Z,7
2018-01-26T14:51:31.552Z,7
2018-01-26T14:52:34.336Z,8
2018-01-26T14:53:36.835Z,8
2018-01-26T14:54:39.631Z,8
2018-01-26T14:55:42.130Z,8
2018-01-26T14:56:44.904Z,8
2018-01-26T14:57:47.410Z,7
2018-01-26T14:58:49.914Z,7
2018-01-26T14:59:52.411Z,6
2018-01-26T15:00:54.913Z,6
2018-01-26T15:01:57.407Z,6
2018-01-26T15:02:59.916Z,6
2018-01-26T15:04:02.729Z,6
2018-01-26T15:05:05.225Z,6
2018-01-26T15:06:07.723Z,6
2018-01-26T15:07:10.221Z,6
2018-01-26T15:08:12.718Z,5
2018-01-26T15:09:15.224Z,5
2018-01-26T15:10:18.003Z,4
2018-01-26T15:11:20.759Z,4